sensor_id;sensor_type;location;lat;lon;timestamp;P1;durP1;ratioP1;P2;durP2;ratioP2
11121;SDS011;5615;49.304;10.576;2023-06-01T00:02:26;3.93;;;3.53;;
11121;SDS011;5615;49.304;10.576;2023-06-01T00:04:52;6.90;;;3.80;;
11121;SDS011;5615;49.304;10.576;2023-06-01T00:07:19;5.93;;;3.37;;
11121;SDS011;5615;49.304;10.576;2023-06-01T00:09:46;4.93;;;3.47;;
11121;SDS011;5615;49.304;10.576;2023-06-01T00:12:12;5.20;;;3.57;;
11121;SDS011;5615;49.304;10.576;2023-06-01T00:14:40;6.90;;;3.53;;
11121;SDS011;5615;49.304;10.576;2023-06-01T00:17:07;5.27;;;3.50;;
11121;SDS011;5615;49.304;10.576;2023-06-01T00:19:34;5.50;;;3.33;;
11121;SDS011;5615;49.304;10.576;2023-06-01T00:22:03;6.10;;;3.60;;
11121;SDS011;5615;49.304;10.576;2023-06-01T00:24:32;7.93;;;3.67;;
11121;SDS011;5615;49.304;10.576;2023-06-01T00:26:58;10.53;;;3.77;;
11121;SDS011;5615;49.304;10.576;2023-06-01T00:29:26;5.30;;;4.10;;
11121;SDS011;5615;49.304;10.576;2023-06-01T00:31:54;6.03;;;4.00;;
11121;SDS011;5615;49.304;10.576;2023-06-01T00:34:21;6.83;;;3.77;;
11121;SDS011;5615;49.304;10.576;2023-06-01T00:36:47;7.57;;;3.80;;
11121;SDS011;5615;49.304;10.576;2023-06-01T00:39:14;6.73;;;3.97;;
11121;SDS011;5615;49.304;10.576;2023-06-01T00:41:40;7.80;;;3.73;;
11121;SDS011;5615;49.304;10.576;2023-06-01T00:44:07;7.03;;;4.10;;
11121;SDS011;5615;49.304;10.576;2023-06-01T00:46:34;7.07;;;4.17;;
11121;SDS011;5615;49.304;10.576;2023-06-01T00:49:04;9.27;;;3.93;;
11121;SDS011;5615;49.304;10.576;2023-06-01T00:51:31;6.50;;;3.90;;
11121;SDS011;5615;49.304;10.576;2023-06-01T00:53:59;6.07;;;3.87;;
11121;SDS011;5615;49.304;10.576;2023-06-01T00:56:26;6.40;;;4.13;;
11121;SDS011;5615;49.304;10.576;2023-06-01T00:58:53;5.57;;;4.27;;
11121;SDS011;5615;49.304;10.576;2023-06-01T01:01:20;14.47;;;4.20;;
11121;SDS011;5615;49.304;10.576;2023-06-01T01:03:47;11.17;;;4.43;;
11121;SDS011;5615;49.304;10.576;2023-06-01T01:06:24;7.90;;;4.57;;
11121;SDS011;5615;49.304;10.576;2023-06-01T01:09:03;8.07;;;3.97;;
11121;SDS011;5615;49.304;10.576;2023-06-01T01:11:40;6.40;;;3.93;;
11121;SDS011;5615;49.304;10.576;2023-06-01T01:14:11;6.60;;;4.10;;
11121;SDS011;5615;49.304;10.576;2023-06-01T01:16:46;5.00;;;3.53;;
11121;SDS011;5615;49.304;10.576;2023-06-01T01:19:26;7.17;;;3.90;;
11121;SDS011;5615;49.304;10.576;2023-06-01T01:22:13;8.30;;;3.90;;
11121;SDS011;5615;49.304;10.576;2023-06-01T01:24:55;5.47;;;3.50;;
11121;SDS011;5615;49.304;10.576;2023-06-01T01:27:39;6.87;;;4.17;;
11121;SDS011;5615;49.304;10.576;2023-06-01T01:30:15;4.90;;;3.67;;
11121;SDS011;5615;49.304;10.576;2023-06-01T01:32:43;7.80;;;4.47;;
11121;SDS011;5615;49.304;10.576;2023-06-01T01:35:10;5.00;;;4.27;;
11121;SDS011;5615;49.304;10.576;2023-06-01T01:37:43;12.03;;;4.50;;
11121;SDS011;5615;49.304;10.576;2023-06-01T01:40:16;6.43;;;4.63;;
11121;SDS011;5615;49.304;10.576;2023-06-01T01:42:43;7.03;;;4.33;;
11121;SDS011;5615;49.304;10.576;2023-06-01T01:45:09;6.97;;;4.43;;
11121;SDS011;5615;49.304;10.576;2023-06-01T01:47:40;7.17;;;4.40;;
11121;SDS011;5615;49.304;10.576;2023-06-01T01:50:14;9.20;;;4.60;;
11121;SDS011;5615;49.304;10.576;2023-06-01T01:52:44;7.80;;;4.43;;
11121;SDS011;5615;49.304;10.576;2023-06-01T01:55:13;7.83;;;4.77;;
11121;SDS011;5615;49.304;10.576;2023-06-01T01:57:43;7.93;;;4.40;;
11121;SDS011;5615;49.304;10.576;2023-06-01T02:00:11;5.77;;;4.63;;
11121;SDS011;5615;49.304;10.576;2023-06-01T02:02:40;5.10;;;4.37;;
11121;SDS011;5615;49.304;10.576;2023-06-01T02:05:07;8.00;;;4.50;;
11121;SDS011;5615;49.304;10.576;2023-06-01T02:07:33;7.77;;;5.10;;
11121;SDS011;5615;49.304;10.576;2023-06-01T02:10:00;8.07;;;4.60;;
11121;SDS011;5615;49.304;10.576;2023-06-01T02:12:27;6.10;;;4.70;;
11121;SDS011;5615;49.304;10.576;2023-06-01T02:14:53;6.30;;;4.20;;
11121;SDS011;5615;49.304;10.576;2023-06-01T02:17:20;7.90;;;3.90;;
11121;SDS011;5615;49.304;10.576;2023-06-01T02:19:51;6.23;;;4.20;;
11121;SDS011;5615;49.304;10.576;2023-06-01T02:22:18;7.17;;;4.40;;
11121;SDS011;5615;49.304;10.576;2023-06-01T02:24:44;6.27;;;4.10;;
11121;SDS011;5615;49.304;10.576;2023-06-01T02:27:11;8.03;;;5.07;;
11121;SDS011;5615;49.304;10.576;2023-06-01T02:29:38;7.23;;;4.53;;
11121;SDS011;5615;49.304;10.576;2023-06-01T02:32:04;9.67;;;5.33;;
11121;SDS011;5615;49.304;10.576;2023-06-01T02:34:31;6.77;;;4.73;;
11121;SDS011;5615;49.304;10.576;2023-06-01T02:36:59;9.10;;;5.13;;
11121;SDS011;5615;49.304;10.576;2023-06-01T02:39:26;6.17;;;4.60;;
11121;SDS011;5615;49.304;10.576;2023-06-01T02:41:53;6.67;;;4.90;;
11121;SDS011;5615;49.304;10.576;2023-06-01T02:44:19;9.50;;;5.20;;
11121;SDS011;5615;49.304;10.576;2023-06-01T02:46:46;7.20;;;4.50;;
11121;SDS011;5615;49.304;10.576;2023-06-01T02:49:12;8.07;;;4.57;;
11121;SDS011;5615;49.304;10.576;2023-06-01T02:51:39;7.70;;;4.80;;
11121;SDS011;5615;49.304;10.576;2023-06-01T02:54:07;6.87;;;4.77;;
11121;SDS011;5615;49.304;10.576;2023-06-01T02:56:33;10.07;;;4.90;;
11121;SDS011;5615;49.304;10.576;2023-06-01T02:59:00;9.03;;;5.10;;
11121;SDS011;5615;49.304;10.576;2023-06-01T03:01:28;8.47;;;5.33;;
11121;SDS011;5615;49.304;10.576;2023-06-01T03:04:00;7.00;;;5.33;;
11121;SDS011;5615;49.304;10.576;2023-06-01T03:06:28;8.57;;;4.93;;
11121;SDS011;5615;49.304;10.576;2023-06-01T03:08:57;10.10;;;5.90;;
11121;SDS011;5615;49.304;10.576;2023-06-01T03:11:25;8.53;;;5.00;;
11121;SDS011;5615;49.304;10.576;2023-06-01T03:13:51;11.53;;;5.37;;
11121;SDS011;5615;49.304;10.576;2023-06-01T03:16:18;9.10;;;5.20;;
11121;SDS011;5615;49.304;10.576;2023-06-01T03:18:45;9.33;;;5.33;;
11121;SDS011;5615;49.304;10.576;2023-06-01T03:21:11;8.33;;;5.23;;
11121;SDS011;5615;49.304;10.576;2023-06-01T03:23:38;7.67;;;4.90;;
11121;SDS011;5615;49.304;10.576;2023-06-01T03:26:08;10.90;;;5.70;;
11121;SDS011;5615;49.304;10.576;2023-06-01T03:28:38;9.03;;;6.13;;
11121;SDS011;5615;49.304;10.576;2023-06-01T03:31:05;10.33;;;5.50;;
11121;SDS011;5615;49.304;10.576;2023-06-01T03:33:32;7.67;;;5.40;;
11121;SDS011;5615;49.304;10.576;2023-06-01T03:35:59;7.37;;;4.77;;
11121;SDS011;5615;49.304;10.576;2023-06-01T03:38:26;8.87;;;5.10;;
11121;SDS011;5615;49.304;10.576;2023-06-01T03:40:53;5.87;;;4.57;;
11121;SDS011;5615;49.304;10.576;2023-06-01T03:43:19;10.47;;;5.10;;
11121;SDS011;5615;49.304;10.576;2023-06-01T03:45:47;10.23;;;4.97;;
11121;SDS011;5615;49.304;10.576;2023-06-01T03:48:14;9.67;;;5.10;;
11121;SDS011;5615;49.304;10.576;2023-06-01T03:50:41;7.73;;;4.87;;
11121;SDS011;5615;49.304;10.576;2023-06-01T03:53:07;8.30;;;5.37;;
11121;SDS011;5615;49.304;10.576;2023-06-01T03:55:34;10.60;;;5.43;;
11121;SDS011;5615;49.304;10.576;2023-06-01T03:58:01;8.37;;;5.23;;
11121;SDS011;5615;49.304;10.576;2023-06-01T04:00:29;6.67;;;4.90;;
11121;SDS011;5615;49.304;10.576;2023-06-01T04:02:58;6.40;;;5.00;;
11121;SDS011;5615;49.304;10.576;2023-06-01T04:05:26;6.80;;;5.13;;
11121;SDS011;5615;49.304;10.576;2023-06-01T04:07:54;7.07;;;5.10;;
11121;SDS011;5615;49.304;10.576;2023-06-01T04:10:21;9.03;;;5.43;;
11121;SDS011;5615;49.304;10.576;2023-06-01T04:12:48;9.70;;;5.33;;
11121;SDS011;5615;49.304;10.576;2023-06-01T04:15:16;12.37;;;5.27;;
11121;SDS011;5615;49.304;10.576;2023-06-01T04:17:44;7.83;;;5.17;;
11121;SDS011;5615;49.304;10.576;2023-06-01T04:20:12;10.07;;;5.27;;
11121;SDS011;5615;49.304;10.576;2023-06-01T04:22:40;7.23;;;4.80;;
11121;SDS011;5615;49.304;10.576;2023-06-01T04:25:08;7.63;;;4.87;;
11121;SDS011;5615;49.304;10.576;2023-06-01T04:27:36;10.43;;;5.00;;
11121;SDS011;5615;49.304;10.576;2023-06-01T04:30:03;11.27;;;5.03;;
11121;SDS011;5615;49.304;10.576;2023-06-01T04:32:32;7.63;;;5.00;;
11121;SDS011;5615;49.304;10.576;2023-06-01T04:35:00;7.63;;;4.73;;
11121;SDS011;5615;49.304;10.576;2023-06-01T04:37:31;9.30;;;4.50;;
11121;SDS011;5615;49.304;10.576;2023-06-01T04:39:59;12.20;;;5.20;;
11121;SDS011;5615;49.304;10.576;2023-06-01T04:42:25;10.17;;;5.33;;
11121;SDS011;5615;49.304;10.576;2023-06-01T04:44:53;7.47;;;4.60;;
11121;SDS011;5615;49.304;10.576;2023-06-01T04:47:19;7.53;;;4.63;;
11121;SDS011;5615;49.304;10.576;2023-06-01T04:49:47;8.77;;;4.87;;
11121;SDS011;5615;49.304;10.576;2023-06-01T04:52:14;7.93;;;4.83;;
11121;SDS011;5615;49.304;10.576;2023-06-01T04:54:42;6.33;;;4.37;;
11121;SDS011;5615;49.304;10.576;2023-06-01T04:57:09;8.43;;;4.73;;
11121;SDS011;5615;49.304;10.576;2023-06-01T04:59:35;6.27;;;4.20;;
11121;SDS011;5615;49.304;10.576;2023-06-01T05:02:02;6.80;;;4.27;;
11121;SDS011;5615;49.304;10.576;2023-06-01T05:04:29;7.23;;;4.23;;
11121;SDS011;5615;49.304;10.576;2023-06-01T05:06:56;8.60;;;4.50;;
11121;SDS011;5615;49.304;10.576;2023-06-01T05:09:22;9.53;;;5.13;;
11121;SDS011;5615;49.304;10.576;2023-06-01T05:11:50;6.80;;;4.47;;
11121;SDS011;5615;49.304;10.576;2023-06-01T05:14:17;8.27;;;4.80;;
11121;SDS011;5615;49.304;10.576;2023-06-01T05:16:43;8.20;;;5.03;;
11121;SDS011;5615;49.304;10.576;2023-06-01T05:19:10;6.33;;;4.73;;
11121;SDS011;5615;49.304;10.576;2023-06-01T05:21:37;9.67;;;4.97;;
11121;SDS011;5615;49.304;10.576;2023-06-01T05:24:05;8.70;;;5.07;;
11121;SDS011;5615;49.304;10.576;2023-06-01T05:26:32;7.20;;;4.60;;
11121;SDS011;5615;49.304;10.576;2023-06-01T05:29:00;8.37;;;4.53;;
11121;SDS011;5615;49.304;10.576;2023-06-01T05:31:28;8.40;;;4.70;;
11121;SDS011;5615;49.304;10.576;2023-06-01T05:33:55;10.50;;;4.70;;
11121;SDS011;5615;49.304;10.576;2023-06-01T05:36:22;6.97;;;4.80;;
11121;SDS011;5615;49.304;10.576;2023-06-01T05:38:49;6.73;;;4.70;;
11121;SDS011;5615;49.304;10.576;2023-06-01T05:41:16;7.93;;;4.60;;
11121;SDS011;5615;49.304;10.576;2023-06-01T05:43:42;7.97;;;5.00;;
11121;SDS011;5615;49.304;10.576;2023-06-01T05:46:10;7.83;;;4.77;;
11121;SDS011;5615;49.304;10.576;2023-06-01T05:48:37;7.73;;;4.63;;
11121;SDS011;5615;49.304;10.576;2023-06-01T05:51:03;9.63;;;4.40;;
11121;SDS011;5615;49.304;10.576;2023-06-01T05:53:30;6.40;;;5.00;;
11121;SDS011;5615;49.304;10.576;2023-06-01T05:55:56;9.33;;;4.73;;
11121;SDS011;5615;49.304;10.576;2023-06-01T05:58:23;11.97;;;5.13;;
11121;SDS011;5615;49.304;10.576;2023-06-01T06:00:50;8.30;;;4.70;;
11121;SDS011;5615;49.304;10.576;2023-06-01T06:03:18;7.50;;;4.47;;
11121;SDS011;5615;49.304;10.576;2023-06-01T06:05:44;8.30;;;4.70;;
11121;SDS011;5615;49.304;10.576;2023-06-01T06:08:11;5.55;;;3.65;;
11121;SDS011;5615;49.304;10.576;2023-06-01T06:10:37;6.03;;;3.00;;
11121;SDS011;5615;49.304;10.576;2023-06-01T06:13:04;5.90;;;3.45;;
11121;SDS011;5615;49.304;10.576;2023-06-01T06:15:31;4.05;;;2.80;;
11121;SDS011;5615;49.304;10.576;2023-06-01T06:17:57;5.70;;;3.25;;
11121;SDS011;5615;49.304;10.576;2023-06-01T06:20:25;5.38;;;3.33;;
11121;SDS011;5615;49.304;10.576;2023-06-01T06:22:52;6.90;;;3.45;;
11121;SDS011;5615;49.304;10.576;2023-06-01T06:25:19;4.95;;;2.97;;
11121;SDS011;5615;49.304;10.576;2023-06-01T06:27:46;5.30;;;2.88;;
11121;SDS011;5615;49.304;10.576;2023-06-01T06:30:12;4.38;;;2.95;;
11121;SDS011;5615;49.304;10.576;2023-06-01T06:32:40;6.55;;;2.63;;
11121;SDS011;5615;49.304;10.576;2023-06-01T06:35:07;6.03;;;2.70;;
11121;SDS011;5615;49.304;10.576;2023-06-01T06:37:39;3.50;;;3.00;;
11121;SDS011;5615;49.304;10.576;2023-06-01T06:40:07;6.45;;;2.80;;
11121;SDS011;5615;49.304;10.576;2023-06-01T06:42:34;5.22;;;3.35;;
11121;SDS011;5615;49.304;10.576;2023-06-01T06:45:00;5.57;;;2.55;;
11121;SDS011;5615;49.304;10.576;2023-06-01T06:47:27;5.22;;;2.70;;
11121;SDS011;5615;49.304;10.576;2023-06-01T06:49:54;3.67;;;2.45;;
11121;SDS011;5615;49.304;10.576;2023-06-01T06:52:20;5.25;;;2.70;;
11121;SDS011;5615;49.304;10.576;2023-06-01T06:54:48;4.32;;;2.88;;
11121;SDS011;5615;49.304;10.576;2023-06-01T06:57:15;6.35;;;2.53;;
11121;SDS011;5615;49.304;10.576;2023-06-01T06:59:42;6.28;;;2.70;;
11121;SDS011;5615;49.304;10.576;2023-06-01T07:02:08;5.70;;;2.83;;
11121;SDS011;5615;49.304;10.576;2023-06-01T07:04:35;5.43;;;2.97;;
11121;SDS011;5615;49.304;10.576;2023-06-01T07:07:02;3.83;;;2.58;;
11121;SDS011;5615;49.304;10.576;2023-06-01T07:09:29;4.75;;;2.58;;
11121;SDS011;5615;49.304;10.576;2023-06-01T07:11:57;5.05;;;2.88;;
11121;SDS011;5615;49.304;10.576;2023-06-01T07:14:23;4.03;;;2.45;;
11121;SDS011;5615;49.304;10.576;2023-06-01T07:16:50;3.60;;;2.40;;
11121;SDS011;5615;49.304;10.576;2023-06-01T07:19:17;3.47;;;2.80;;
11121;SDS011;5615;49.304;10.576;2023-06-01T07:21:43;3.17;;;2.70;;
11121;SDS011;5615;49.304;10.576;2023-06-01T07:24:10;3.58;;;2.55;;
11121;SDS011;5615;49.304;10.576;2023-06-01T07:26:36;6.18;;;2.30;;
11121;SDS011;5615;49.304;10.576;2023-06-01T07:29:04;4.20;;;2.78;;
11121;SDS011;5615;49.304;10.576;2023-06-01T07:31:31;7.10;;;2.42;;
11121;SDS011;5615;49.304;10.576;2023-06-01T07:34:00;3.00;;;2.70;;
11121;SDS011;5615;49.304;10.576;2023-06-01T07:36:26;4.60;;;2.63;;
11121;SDS011;5615;49.304;10.576;2023-06-01T07:38:53;4.50;;;2.53;;
11121;SDS011;5615;49.304;10.576;2023-06-01T07:41:20;4.03;;;2.80;;
11121;SDS011;5615;49.304;10.576;2023-06-01T07:43:46;4.75;;;2.40;;
11121;SDS011;5615;49.304;10.576;2023-06-01T07:46:14;5.38;;;2.78;;
11121;SDS011;5615;49.304;10.576;2023-06-01T07:48:41;5.53;;;2.42;;
11121;SDS011;5615;49.304;10.576;2023-06-01T07:51:07;6.13;;;2.58;;
11121;SDS011;5615;49.304;10.576;2023-06-01T07:53:35;2.95;;;2.45;;
11121;SDS011;5615;49.304;10.576;2023-06-01T07:56:01;2.95;;;2.58;;
11121;SDS011;5615;49.304;10.576;2023-06-01T07:58:28;4.57;;;3.00;;
11121;SDS011;5615;49.304;10.576;2023-06-01T08:00:55;5.25;;;2.60;;
11121;SDS011;5615;49.304;10.576;2023-06-01T08:03:23;6.18;;;2.70;;
11121;SDS011;5615;49.304;10.576;2023-06-01T08:05:50;4.03;;;2.60;;
11121;SDS011;5615;49.304;10.576;2023-06-01T08:08:22;4.88;;;2.55;;
11121;SDS011;5615;49.304;10.576;2023-06-01T08:10:49;2.85;;;2.47;;
11121;SDS011;5615;49.304;10.576;2023-06-01T08:13:16;3.53;;;2.72;;
11121;SDS011;5615;49.304;10.576;2023-06-01T08:15:43;2.83;;;2.58;;
11121;SDS011;5615;49.304;10.576;2023-06-01T08:18:12;5.47;;;2.80;;
11121;SDS011;5615;49.304;10.576;2023-06-01T08:20:40;3.80;;;2.92;;
11121;SDS011;5615;49.304;10.576;2023-06-01T08:23:07;3.47;;;2.70;;
11121;SDS011;5615;49.304;10.576;2023-06-01T08:25:33;6.28;;;3.03;;
11121;SDS011;5615;49.304;10.576;2023-06-01T08:28:00;6.75;;;2.90;;
11121;SDS011;5615;49.304;10.576;2023-06-01T08:30:28;7.38;;;3.20;;
11121;SDS011;5615;49.304;10.576;2023-06-01T08:32:54;8.32;;;2.90;;
11121;SDS011;5615;49.304;10.576;2023-06-01T08:35:21;4.50;;;3.08;;
11121;SDS011;5615;49.304;10.576;2023-06-01T08:37:49;6.70;;;2.90;;
11121;SDS011;5615;49.304;10.576;2023-06-01T08:40:16;4.03;;;2.92;;
11121;SDS011;5615;49.304;10.576;2023-06-01T08:42:43;5.38;;;2.90;;
11121;SDS011;5615;49.304;10.576;2023-06-01T08:45:16;3.25;;;2.70;;
11121;SDS011;5615;49.304;10.576;2023-06-01T08:47:43;4.75;;;2.70;;
11121;SDS011;5615;49.304;10.576;2023-06-01T08:50:12;6.55;;;3.10;;
11121;SDS011;5615;49.304;10.576;2023-06-01T08:52:41;4.45;;;2.90;;
11121;SDS011;5615;49.304;10.576;2023-06-01T08:55:13;3.97;;;2.80;;
11121;SDS011;5615;49.304;10.576;2023-06-01T08:57:40;5.60;;;2.97;;
11121;SDS011;5615;49.304;10.576;2023-06-01T09:00:07;6.03;;;3.00;;
11121;SDS011;5615;49.304;10.576;2023-06-01T09:02:34;4.25;;;3.03;;
11121;SDS011;5615;49.304;10.576;2023-06-01T09:05:01;3.22;;;2.90;;
11121;SDS011;5615;49.304;10.576;2023-06-01T09:07:28;4.63;;;2.60;;
11121;SDS011;5615;49.304;10.576;2023-06-01T09:09:56;5.72;;;2.55;;
11121;SDS011;5615;49.304;10.576;2023-06-01T09:12:25;5.65;;;2.85;;
11121;SDS011;5615;49.304;10.576;2023-06-01T09:15:06;5.80;;;2.75;;
11121;SDS011;5615;49.304;10.576;2023-06-01T09:17:34;4.00;;;2.67;;
11121;SDS011;5615;49.304;10.576;2023-06-01T09:20:01;4.30;;;2.70;;
11121;SDS011;5615;49.304;10.576;2023-06-01T09:22:37;6.30;;;2.92;;
11121;SDS011;5615;49.304;10.576;2023-06-01T09:25:05;5.93;;;2.35;;
11121;SDS011;5615;49.304;10.576;2023-06-01T09:27:41;4.72;;;2.35;;
11121;SDS011;5615;49.304;10.576;2023-06-01T09:30:10;4.80;;;2.47;;
11121;SDS011;5615;49.304;10.576;2023-06-01T09:32:38;4.68;;;2.58;;
11121;SDS011;5615;49.304;10.576;2023-06-01T09:35:05;3.88;;;2.90;;
11121;SDS011;5615;49.304;10.576;2023-06-01T09:37:33;3.90;;;2.38;;
11121;SDS011;5615;49.304;10.576;2023-06-01T09:40:00;5.43;;;2.78;;
11121;SDS011;5615;49.304;10.576;2023-06-01T09:42:30;3.80;;;2.40;;
11121;SDS011;5615;49.304;10.576;2023-06-01T09:45:05;3.20;;;2.47;;
11121;SDS011;5615;49.304;10.576;2023-06-01T09:47:40;4.07;;;2.72;;
11121;SDS011;5615;49.304;10.576;2023-06-01T09:50:07;3.67;;;2.65;;
11121;SDS011;5615;49.304;10.576;2023-06-01T09:52:34;3.90;;;2.50;;
11121;SDS011;5615;49.304;10.576;2023-06-01T09:55:04;3.05;;;2.50;;
11121;SDS011;5615;49.304;10.576;2023-06-01T09:57:32;4.55;;;2.65;;
11121;SDS011;5615;49.304;10.576;2023-06-01T09:59:59;4.38;;;2.55;;
11121;SDS011;5615;49.304;10.576;2023-06-01T10:02:30;2.95;;;2.47;;
11121;SDS011;5615;49.304;10.576;2023-06-01T10:04:59;4.57;;;2.40;;
11121;SDS011;5615;49.304;10.576;2023-06-01T10:07:26;5.22;;;2.55;;
11121;SDS011;5615;49.304;10.576;2023-06-01T10:09:54;2.50;;;2.13;;
11121;SDS011;5615;49.304;10.576;2023-06-01T10:12:23;3.75;;;2.50;;
11121;SDS011;5615;49.304;10.576;2023-06-01T10:14:51;2.55;;;2.20;;
11121;SDS011;5615;49.304;10.576;2023-06-01T10:17:19;4.15;;;2.47;;
11121;SDS011;5615;49.304;10.576;2023-06-01T10:19:46;7.95;;;2.90;;
11121;SDS011;5615;49.304;10.576;2023-06-01T10:22:13;3.90;;;2.25;;
11121;SDS011;5615;49.304;10.576;2023-06-01T10:24:41;2.78;;;2.47;;
11121;SDS011;5615;49.304;10.576;2023-06-01T10:27:11;2.85;;;2.35;;
11121;SDS011;5615;49.304;10.576;2023-06-01T10:29:42;6.20;;;2.58;;
11121;SDS011;5615;49.304;10.576;2023-06-01T10:35:08;4.80;;;2.53;;
11121;SDS011;5615;49.304;10.576;2023-06-01T10:37:36;3.30;;;2.33;;
11121;SDS011;5615;49.304;10.576;2023-06-01T10:40:11;3.17;;;2.50;;
11121;SDS011;5615;49.304;10.576;2023-06-01T10:42:46;5.88;;;2.45;;
11121;SDS011;5615;49.304;10.576;2023-06-01T10:48:05;3.15;;;2.38;;
11121;SDS011;5615;49.304;10.576;2023-06-01T10:50:32;4.32;;;2.53;;
11121;SDS011;5615;49.304;10.576;2023-06-01T10:58:45;3.30;;;2.28;;
11121;SDS011;5615;49.304;10.576;2023-06-01T11:01:17;6.20;;;2.40;;
11121;SDS011;5615;49.304;10.576;2023-06-01T11:03:47;4.05;;;2.28;;
11121;SDS011;5615;49.304;10.576;2023-06-01T11:06:24;4.38;;;2.47;;
11121;SDS011;5615;49.304;10.576;2023-06-01T11:08:54;4.35;;;2.20;;
11121;SDS011;5615;49.304;10.576;2023-06-01T11:11:22;4.40;;;2.30;;
11121;SDS011;5615;49.304;10.576;2023-06-01T11:14:06;3.85;;;2.20;;
11121;SDS011;5615;49.304;10.576;2023-06-01T11:16:35;4.53;;;2.47;;
11121;SDS011;5615;49.304;10.576;2023-06-01T11:19:03;3.22;;;2.28;;
11121;SDS011;5615;49.304;10.576;2023-06-01T11:21:32;5.78;;;2.50;;
11121;SDS011;5615;49.304;10.576;2023-06-01T11:24:03;5.10;;;2.70;;
11121;SDS011;5615;49.304;10.576;2023-06-01T11:26:34;4.63;;;2.55;;
11121;SDS011;5615;49.304;10.576;2023-06-01T11:29:03;5.45;;;2.88;;
11121;SDS011;5615;49.304;10.576;2023-06-01T11:31:35;3.33;;;2.47;;
11121;SDS011;5615;49.304;10.576;2023-06-01T11:34:04;3.25;;;2.50;;
11121;SDS011;5615;49.304;10.576;2023-06-01T11:36:35;3.22;;;2.25;;
11121;SDS011;5615;49.304;10.576;2023-06-01T11:39:03;3.45;;;2.35;;
11121;SDS011;5615;49.304;10.576;2023-06-01T11:41:32;4.55;;;2.67;;
11121;SDS011;5615;49.304;10.576;2023-06-01T11:44:00;6.55;;;2.50;;
11121;SDS011;5615;49.304;10.576;2023-06-01T11:46:27;5.55;;;2.60;;
11121;SDS011;5615;49.304;10.576;2023-06-01T11:49:00;3.10;;;2.78;;
11121;SDS011;5615;49.304;10.576;2023-06-01T11:51:31;4.40;;;3.00;;
11121;SDS011;5615;49.304;10.576;2023-06-01T11:54:00;6.55;;;2.60;;
11121;SDS011;5615;49.304;10.576;2023-06-01T11:56:27;6.97;;;2.70;;
11121;SDS011;5615;49.304;10.576;2023-06-01T11:58:56;3.22;;;2.58;;
11121;SDS011;5615;49.304;10.576;2023-06-01T12:01:24;4.18;;;2.63;;
11121;SDS011;5615;49.304;10.576;2023-06-01T12:03:51;3.33;;;2.70;;
11121;SDS011;5615;49.304;10.576;2023-06-01T12:06:18;4.85;;;2.83;;
11121;SDS011;5615;49.304;10.576;2023-06-01T12:08:47;4.78;;;2.55;;
11121;SDS011;5615;49.304;10.576;2023-06-01T12:11:17;4.53;;;2.08;;
11121;SDS011;5615;49.304;10.576;2023-06-01T12:13:46;5.65;;;2.38;;
11121;SDS011;5615;49.304;10.576;2023-06-01T12:16:13;3.88;;;2.67;;
11121;SDS011;5615;49.304;10.576;2023-06-01T12:18:41;7.28;;;2.47;;
11121;SDS011;5615;49.304;10.576;2023-06-01T12:21:08;3.00;;;2.40;;
11121;SDS011;5615;49.304;10.576;2023-06-01T12:23:35;3.88;;;3.05;;
11121;SDS011;5615;49.304;10.576;2023-06-01T12:26:03;3.03;;;2.70;;
11121;SDS011;5615;49.304;10.576;2023-06-01T12:28:46;5.72;;;3.00;;
11121;SDS011;5615;49.304;10.576;2023-06-01T12:31:14;4.63;;;2.67;;
11121;SDS011;5615;49.304;10.576;2023-06-01T12:33:42;4.72;;;2.60;;
11121;SDS011;5615;49.304;10.576;2023-06-01T12:36:10;5.07;;;2.78;;
11121;SDS011;5615;49.304;10.576;2023-06-01T12:38:53;3.90;;;2.63;;
11121;SDS011;5615;49.304;10.576;2023-06-01T12:41:21;5.50;;;2.83;;
11121;SDS011;5615;49.304;10.576;2023-06-01T12:43:48;3.63;;;2.90;;
11121;SDS011;5615;49.304;10.576;2023-06-01T12:46:18;7.60;;;3.10;;
11121;SDS011;5615;49.304;10.576;2023-06-01T12:48:45;3.35;;;2.50;;
11121;SDS011;5615;49.304;10.576;2023-06-01T12:51:13;4.55;;;2.45;;
11121;SDS011;5615;49.304;10.576;2023-06-01T12:53:39;5.75;;;2.85;;
11121;SDS011;5615;49.304;10.576;2023-06-01T12:56:07;4.93;;;2.75;;
11121;SDS011;5615;49.304;10.576;2023-06-01T12:58:35;6.80;;;2.85;;
11121;SDS011;5615;49.304;10.576;2023-06-01T13:01:02;4.43;;;2.70;;
11121;SDS011;5615;49.304;10.576;2023-06-01T13:03:30;2.88;;;2.60;;
11121;SDS011;5615;49.304;10.576;2023-06-01T13:05:57;5.05;;;2.42;;
11121;SDS011;5615;49.304;10.576;2023-06-01T13:08:25;6.35;;;2.83;;
11121;SDS011;5615;49.304;10.576;2023-06-01T13:10:52;6.30;;;2.60;;
11121;SDS011;5615;49.304;10.576;2023-06-01T13:13:19;4.18;;;2.60;;
11121;SDS011;5615;49.304;10.576;2023-06-01T13:15:47;5.95;;;2.80;;
11121;SDS011;5615;49.304;10.576;2023-06-01T13:18:14;4.75;;;2.40;;
11121;SDS011;5615;49.304;10.576;2023-06-01T13:20:41;3.08;;;2.40;;
11121;SDS011;5615;49.304;10.576;2023-06-01T13:23:08;5.97;;;2.35;;
11121;SDS011;5615;49.304;10.576;2023-06-01T13:25:36;3.58;;;2.53;;
11121;SDS011;5615;49.304;10.576;2023-06-01T13:28:03;7.18;;;2.50;;
11121;SDS011;5615;49.304;10.576;2023-06-01T13:30:31;6.32;;;2.25;;
11121;SDS011;5615;49.304;10.576;2023-06-01T13:32:59;2.40;;;2.20;;
11121;SDS011;5615;49.304;10.576;2023-06-01T13:35:26;3.58;;;2.45;;
11121;SDS011;5615;49.304;10.576;2023-06-01T13:37:53;3.60;;;2.30;;
11121;SDS011;5615;49.304;10.576;2023-06-01T13:40:20;5.22;;;2.25;;
11121;SDS011;5615;49.304;10.576;2023-06-01T13:42:49;4.65;;;2.40;;
11121;SDS011;5615;49.304;10.576;2023-06-01T13:45:16;4.82;;;2.70;;
11121;SDS011;5615;49.304;10.576;2023-06-01T13:47:43;2.58;;;2.35;;
11121;SDS011;5615;49.304;10.576;2023-06-01T13:50:11;2.80;;;2.50;;
11121;SDS011;5615;49.304;10.576;2023-06-01T13:52:38;6.78;;;2.72;;
11121;SDS011;5615;49.304;10.576;2023-06-01T13:55:06;2.88;;;2.40;;
11121;SDS011;5615;49.304;10.576;2023-06-01T13:57:33;2.97;;;2.58;;
11121;SDS011;5615;49.304;10.576;2023-06-01T14:00:00;4.43;;;2.80;;
11121;SDS011;5615;49.304;10.576;2023-06-01T14:02:28;2.92;;;2.40;;
11121;SDS011;5615;49.304;10.576;2023-06-01T14:04:55;3.78;;;2.50;;
11121;SDS011;5615;49.304;10.576;2023-06-01T14:07:23;7.63;;;2.60;;
11121;SDS011;5615;49.304;10.576;2023-06-01T14:09:49;3.97;;;2.35;;
11121;SDS011;5615;49.304;10.576;2023-06-01T14:12:16;3.58;;;2.20;;
11121;SDS011;5615;49.304;10.576;2023-06-01T14:14:43;3.65;;;2.42;;
11121;SDS011;5615;49.304;10.576;2023-06-01T14:17:09;4.25;;;2.33;;
11121;SDS011;5615;49.304;10.576;2023-06-01T14:19:36;2.42;;;2.22;;
11121;SDS011;5615;49.304;10.576;2023-06-01T14:22:02;3.35;;;2.50;;
11121;SDS011;5615;49.304;10.576;2023-06-01T14:24:31;4.25;;;2.53;;
11121;SDS011;5615;49.304;10.576;2023-06-01T14:26:57;3.47;;;2.20;;
11121;SDS011;5615;49.304;10.576;2023-06-01T14:29:24;2.67;;;2.28;;
11121;SDS011;5615;49.304;10.576;2023-06-01T14:31:50;3.17;;;2.40;;
11121;SDS011;5615;49.304;10.576;2023-06-01T14:34:17;6.70;;;2.50;;
11121;SDS011;5615;49.304;10.576;2023-06-01T14:36:44;4.57;;;2.50;;
11121;SDS011;5615;49.304;10.576;2023-06-01T14:39:10;7.63;;;2.75;;
11121;SDS011;5615;49.304;10.576;2023-06-01T14:41:38;5.47;;;2.92;;
11121;SDS011;5615;49.304;10.576;2023-06-01T14:44:06;5.55;;;3.17;;
11121;SDS011;5615;49.304;10.576;2023-06-01T14:46:32;5.18;;;2.88;;
11121;SDS011;5615;49.304;10.576;2023-06-01T14:48:59;4.30;;;2.65;;
11121;SDS011;5615;49.304;10.576;2023-06-01T14:51:27;3.05;;;2.55;;
11121;SDS011;5615;49.304;10.576;2023-06-01T14:53:54;2.40;;;2.20;;
11121;SDS011;5615;49.304;10.576;2023-06-01T14:56:21;4.43;;;2.33;;
11121;SDS011;5615;49.304;10.576;2023-06-01T14:58:49;3.80;;;2.20;;
11121;SDS011;5615;49.304;10.576;2023-06-01T15:01:16;5.22;;;2.70;;
11121;SDS011;5615;49.304;10.576;2023-06-01T15:03:42;9.07;;;2.67;;
11121;SDS011;5615;49.304;10.576;2023-06-01T15:06:09;5.45;;;2.90;;